createdAt,value
2019-01-25T00:00:22.081Z,17.88
2019-01-25T00:01:21.781Z,17.88
2019-01-25T00:02:21.773Z,17.88
2019-01-25T00:03:21.793Z,17.88
2019-01-25T00:04:21.753Z,17.88
2019-01-25T00:05:21.972Z,17.84
2019-01-25T00:06:21.610Z,17.87
2019-01-25T00:07:21.508Z,17.85
2019-01-25T00:08:22.073Z,17.83
2019-01-25T00:09:21.741Z,17.84
2019-01-25T00:10:21.798Z,17.82
2019-01-25T00:11:21.739Z,17.82
2019-01-25T00:12:21.869Z,17.84
2019-01-25T00:13:21.764Z,17.82
2019-01-25T00:14:22.106Z,17.8
2019-01-25T00:15:22.192Z,17.81
2019-01-25T00:16:21.714Z,17.8
2019-01-25T00:17:21.744Z,17.78
2019-01-25T00:18:21.751Z,17.79
2019-01-25T00:19:21.864Z,17.78
2019-01-25T00:20:22.073Z,17.77
2019-01-25T00:21:21.878Z,17.77
2019-01-25T00:22:22.584Z,17.76
2019-01-25T00:23:21.995Z,17.76
2019-01-25T00:24:21.825Z,17.77
2019-01-25T00:25:21.661Z,17.75
2019-01-25T00:26:21.932Z,17.74
2019-01-25T00:27:21.757Z,17.76
2019-01-25T00:28:21.892Z,17.74
2019-01-25T00:29:22.350Z,17.74
2019-01-25T00:30:22.172Z,17.72
2019-01-25T00:31:22.160Z,17.74
2019-01-25T00:32:22.275Z,17.72
2019-01-25T00:33:23.601Z,17.7
2019-01-25T00:34:21.853Z,17.69
2019-01-25T00:35:21.911Z,17.68
2019-01-25T00:36:22.933Z,17.7
2019-01-25T00:37:21.876Z,17.68
2019-01-25T00:38:21.928Z,17.68
2019-01-25T00:39:22.019Z,17.66
2019-01-25T00:40:22.302Z,17.68
2019-01-25T00:41:22.128Z,17.66
2019-01-25T00:42:21.641Z,17.65
2019-01-25T00:43:22.209Z,17.64
2019-01-25T00:44:22.058Z,17.63
2019-01-25T00:45:21.609Z,17.62
2019-01-25T00:46:21.954Z,17.63
2019-01-25T00:47:22.367Z,17.63
2019-01-25T00:48:22.382Z,17.63
2019-01-25T00:49:23.613Z,17.63
2019-01-25T00:50:23.709Z,17.62
2019-01-25T00:51:21.785Z,17.61
2019-01-25T00:52:21.706Z,17.63
2019-01-25T00:53:21.661Z,17.6
2019-01-25T00:54:22.356Z,17.62
2019-01-25T00:55:22.033Z,17.59
2019-01-25T00:56:21.860Z,17.6
2019-01-25T00:57:21.944Z,17.58
2019-01-25T00:58:21.568Z,17.58
2019-01-25T00:59:22.037Z,17.59
2019-01-25T01:00:21.987Z,17.58
2019-01-25T01:01:21.647Z,17.58
2019-01-25T01:02:22.194Z,17.56
2019-01-25T01:03:21.461Z,17.56
2019-01-25T01:04:22.886Z,17.54
2019-01-25T01:05:21.986Z,17.54
2019-01-25T01:06:21.740Z,17.55
2019-01-25T01:07:21.983Z,17.53
2019-01-25T01:08:21.843Z,17.53
2019-01-25T01:09:21.758Z,17.54
2019-01-25T01:10:21.955Z,17.52
2019-01-25T01:11:21.550Z,17.52
2019-01-25T01:12:22.290Z,17.52
2019-01-25T01:13:21.660Z,17.51
2019-01-25T01:14:21.563Z,17.52
2019-01-25T01:15:21.961Z,17.5
2019-01-25T01:16:21.705Z,17.5
2019-01-25T01:17:21.451Z,17.51
2019-01-25T01:18:21.693Z,17.5
2019-01-25T01:19:22.380Z,17.5
2019-01-25T01:20:21.995Z,17.49
2019-01-25T01:21:21.799Z,17.49
2019-01-25T01:22:22.020Z,17.48
2019-01-25T01:23:21.971Z,17.46
2019-01-25T01:24:21.749Z,17.49
2019-01-25T01:25:22.312Z,17.48
2019-01-25T01:26:21.798Z,17.46
2019-01-25T01:27:21.910Z,17.46
2019-01-25T01:28:21.675Z,17.47
2019-01-25T01:29:21.968Z,17.45
2019-01-25T01:30:21.765Z,17.46
2019-01-25T01:31:21.635Z,17.45
2019-01-25T01:32:21.962Z,17.44
2019-01-25T01:33:21.859Z,17.44
2019-01-25T01:34:22.094Z,17.44
2019-01-25T01:35:21.781Z,17.41
2019-01-25T01:36:21.884Z,17.44
2019-01-25T01:37:21.841Z,17.39
2019-01-25T01:38:22.625Z,17.41
2019-01-25T01:39:22.028Z,17.41
2019-01-25T01:40:22.974Z,17.4
2019-01-25T01:41:21.738Z,17.38
2019-01-25T01:42:22.137Z,17.39
2019-01-25T01:43:21.721Z,17.39
2019-01-25T01:44:21.711Z,17.38
2019-01-25T01:45:21.779Z,17.38
2019-01-25T01:46:21.813Z,17.37
2019-01-25T01:47:21.681Z,17.37
2019-01-25T01:48:21.704Z,17.35
2019-01-25T01:49:22.039Z,17.36
2019-01-25T01:50:21.678Z,17.37
2019-01-25T01:51:21.980Z,17.36
2019-01-25T01:52:21.914Z,17.35
2019-01-25T01:53:21.672Z,17.36
2019-01-25T01:54:21.740Z,17.35
2019-01-25T01:55:21.848Z,17.33
2019-01-25T01:56:21.567Z,17.32
2019-01-25T01:57:21.685Z,17.33
2019-01-25T01:58:21.426Z,17.33
2019-01-25T01:59:21.672Z,17.32
2019-01-25T02:00:21.717Z,17.31
2019-01-25T02:01:21.719Z,17.31
2019-01-25T02:02:21.801Z,17.32
2019-01-25T02:03:21.803Z,17.31
2019-01-25T02:04:21.650Z,17.3
2019-01-25T02:05:21.667Z,17.3
2019-01-25T02:06:22.122Z,17.28
2019-01-25T02:07:21.920Z,17.29
2019-01-25T02:08:21.672Z,17.31
2019-01-25T02:09:21.914Z,17.28
2019-01-25T02:10:30.008Z,17.29
2019-01-25T02:11:21.724Z,17.28
2019-01-25T02:12:23.902Z,17.26
2019-01-25T02:13:22.081Z,17.26
2019-01-25T02:14:21.713Z,17.28
2019-01-25T02:15:21.851Z,17.26
2019-01-25T02:16:21.669Z,17.26
2019-01-25T02:17:21.626Z,17.25
2019-01-25T02:18:22.141Z,17.24
2019-01-25T02:19:21.648Z,17.25
2019-01-25T02:20:22.120Z,17.23
2019-01-25T02:21:24.679Z,17.24
2019-01-25T02:22:21.937Z,17.23
2019-01-25T02:23:22.039Z,17.23
2019-01-25T02:24:21.553Z,17.23
2019-01-25T02:25:21.559Z,17.22
2019-01-25T02:26:21.675Z,17.23
2019-01-25T02:27:22.185Z,17.21
2019-01-25T02:28:21.860Z,17.23
2019-01-25T02:29:22.073Z,17.23
2019-01-25T02:30:21.426Z,17.21
2019-01-25T02:31:21.886Z,17.2
2019-01-25T02:32:21.578Z,17.2
2019-01-25T02:33:23.578Z,17.21
2019-01-25T02:34:21.739Z,17.18
2019-01-25T02:35:21.687Z,17.2
2019-01-25T02:36:21.854Z,17.19
2019-01-25T02:37:21.671Z,17.18
2019-01-25T02:38:21.929Z,17.19
2019-01-25T02:39:21.763Z,17.16
2019-01-25T02:40:22.127Z,17.16
2019-01-25T02:41:22.002Z,17.18
2019-01-25T02:42:22.688Z,17.16
2019-01-25T02:43:21.597Z,17.17
2019-01-25T02:44:21.744Z,17.15
2019-01-25T02:45:21.479Z,17.16
2019-01-25T02:46:21.585Z,17.16
2019-01-25T02:47:21.872Z,17.15
2019-01-25T02:48:21.797Z,17.16
2019-01-25T02:49:21.766Z,17.14
2019-01-25T02:50:21.700Z,17.15
2019-01-25T02:51:21.605Z,17.13
2019-01-25T02:52:21.861Z,17.14
2019-01-25T02:53:21.691Z,17.14
2019-01-25T02:54:21.611Z,17.1
2019-01-25T02:55:22.296Z,17.14
2019-01-25T02:56:21.909Z,17.11
2019-01-25T02:57:21.738Z,17.15
2019-01-25T02:58:21.902Z,17.11
2019-01-25T02:59:21.823Z,17.1
2019-01-25T03:00:21.732Z,17.09
2019-01-25T03:01:22.352Z,17.07
2019-01-25T03:02:21.618Z,17.11
2019-01-25T03:03:21.955Z,17.07
2019-01-25T03:04:21.958Z,17.1
2019-01-25T03:05:24.065Z,17.07
2019-01-25T03:06:22.037Z,17.09
2019-01-25T03:07:21.756Z,17.07
2019-01-25T03:08:22.072Z,17.06
2019-01-25T03:09:23.403Z,17.06
2019-01-25T03:10:29.776Z,17.06
2019-01-25T03:11:22.306Z,17.08
2019-01-25T03:12:21.589Z,17.05
2019-01-25T03:13:21.775Z,17.04
2019-01-25T03:14:21.614Z,17.04
2019-01-25T03:15:22.057Z,17.05
2019-01-25T03:16:21.968Z,17.07
2019-01-25T03:17:21.624Z,17.04
2019-01-25T03:18:21.612Z,17.03
2019-01-25T03:19:21.481Z,17.03
2019-01-25T03:20:21.768Z,17.03
2019-01-25T03:21:21.880Z,17.03
2019-01-25T03:22:22.040Z,17.03
2019-01-25T03:23:21.974Z,17.02
2019-01-25T03:24:21.979Z,17
2019-01-25T03:25:21.912Z,17.02
2019-01-25T03:26:22.091Z,17.02
2019-01-25T03:27:21.903Z,17
2019-01-25T03:28:21.997Z,17
2019-01-25T03:29:21.388Z,16.99
2019-01-25T03:30:21.467Z,17
2019-01-25T03:31:21.629Z,17
2019-01-25T03:32:21.746Z,16.99
2019-01-25T03:33:22.083Z,16.99
2019-01-25T03:34:23.685Z,17
2019-01-25T03:35:21.857Z,17
2019-01-25T03:36:21.704Z,16.99
2019-01-25T03:37:21.798Z,16.98
2019-01-25T03:38:21.477Z,16.99
2019-01-25T03:39:21.812Z,16.98
2019-01-25T03:40:22.024Z,16.96
2019-01-25T03:41:21.617Z,16.95
2019-01-25T03:42:22.102Z,16.95
2019-01-25T03:43:24.033Z,16.95
2019-01-25T03:44:21.756Z,16.95
2019-01-25T03:45:21.791Z,16.96
2019-01-25T03:46:21.623Z,16.96
2019-01-25T03:47:21.770Z,16.94
2019-01-25T03:48:21.677Z,16.95
2019-01-25T03:49:21.739Z,16.93
2019-01-25T03:50:21.653Z,16.93
2019-01-25T03:51:22.010Z,16.91
2019-01-25T03:52:23.489Z,16.93
2019-01-25T03:53:21.680Z,16.94
2019-01-25T03:54:21.957Z,16.93
2019-01-25T03:55:21.764Z,16.93
2019-01-25T03:56:21.425Z,16.91
2019-01-25T03:57:21.783Z,16.93
2019-01-25T03:58:21.990Z,16.93
2019-01-25T03:59:21.844Z,16.91
2019-01-25T04:00:21.733Z,16.91
2019-01-25T04:01:21.882Z,16.91
2019-01-25T04:02:21.669Z,16.9
2019-01-25T04:03:21.859Z,16.89
2019-01-25T04:04:21.774Z,16.87
2019-01-25T04:05:21.758Z,16.88
2019-01-25T04:06:21.446Z,16.88
2019-01-25T04:07:21.667Z,16.88
2019-01-25T04:08:21.790Z,16.88
2019-01-25T04:09:22.789Z,16.88
2019-01-25T04:10:21.813Z,16.87
2019-01-25T04:11:22.097Z,16.88
2019-01-25T04:12:21.643Z,16.85
2019-01-25T04:13:21.445Z,16.87
2019-01-25T04:14:21.636Z,16.86
2019-01-25T04:15:21.622Z,16.85
2019-01-25T04:16:24.787Z,16.86
2019-01-25T04:17:21.668Z,16.84
2019-01-25T04:18:22.128Z,16.86
2019-01-25T04:19:21.865Z,16.84
2019-01-25T04:20:21.712Z,16.87
2019-01-25T04:21:21.728Z,16.85
2019-01-25T04:22:21.690Z,16.84
2019-01-25T04:23:21.893Z,16.84
2019-01-25T04:24:21.844Z,16.82
2019-01-25T04:25:22.986Z,16.82
2019-01-25T04:26:21.979Z,16.81
2019-01-25T04:27:22.004Z,16.82
2019-01-25T04:28:21.899Z,16.85
2019-01-25T04:29:21.961Z,16.78
2019-01-25T04:30:22.109Z,16.81
2019-01-25T04:31:21.673Z,16.8
2019-01-25T04:32:21.677Z,16.8
2019-01-25T04:33:21.880Z,16.8
2019-01-25T04:34:21.578Z,16.82
2019-01-25T04:35:21.816Z,16.8
2019-01-25T04:36:21.654Z,16.78
2019-01-25T04:37:21.454Z,16.79
2019-01-25T04:38:21.513Z,16.79
2019-01-25T04:39:22.681Z,16.79
2019-01-25T04:40:21.559Z,16.78
2019-01-25T04:41:22.141Z,16.8
2019-01-25T04:42:21.707Z,16.79
2019-01-25T04:43:21.932Z,16.8
2019-01-25T04:44:21.503Z,16.8
2019-01-25T04:45:21.659Z,16.79
2019-01-25T04:46:21.451Z,16.8
2019-01-25T04:47:21.676Z,16.8
2019-01-25T04:48:21.445Z,16.79
2019-01-25T04:49:22.096Z,16.82
2019-01-25T04:50:21.634Z,16.81
2019-01-25T04:51:21.902Z,16.81
2019-01-25T04:52:21.619Z,16.86
2019-01-25T04:53:21.481Z,16.84
2019-01-25T04:54:21.573Z,16.86
2019-01-25T04:55:21.653Z,16.85
2019-01-25T04:56:21.926Z,16.86
2019-01-25T04:57:21.627Z,16.89
2019-01-25T04:58:21.725Z,16.87
2019-01-25T04:59:22.024Z,16.89
2019-01-25T05:00:21.855Z,16.9
2019-01-25T05:01:21.961Z,16.91
2019-01-25T05:02:21.557Z,16.91
2019-01-25T05:03:21.848Z,16.92
2019-01-25T05:04:21.759Z,16.93
2019-01-25T05:05:21.495Z,16.98
2019-01-25T05:06:21.881Z,16.98
2019-01-25T05:07:21.688Z,16.98
2019-01-25T05:08:23.349Z,16.99
2019-01-25T05:09:21.840Z,17.02
2019-01-25T05:10:21.405Z,17.02
2019-01-25T05:11:21.673Z,17.05
2019-01-25T05:12:22.448Z,17.05
2019-01-25T05:13:21.941Z,17.04
2019-01-25T05:14:21.410Z,17.08
2019-01-25T05:15:21.727Z,17.09
2019-01-25T05:16:21.852Z,17.13
2019-01-25T05:17:21.649Z,17.1
2019-01-25T05:18:22.232Z,17.14
2019-01-25T05:19:21.883Z,17.15
2019-01-25T05:20:21.458Z,17.17
2019-01-25T05:21:21.477Z,17.2
2019-01-25T05:22:21.822Z,17.18
2019-01-25T05:23:21.566Z,17.19
2019-01-25T05:24:21.713Z,17.22
2019-01-25T05:25:23.437Z,17.23
2019-01-25T05:26:21.829Z,17.23
2019-01-25T05:27:22.168Z,17.26
2019-01-25T05:28:21.727Z,17.28
2019-01-25T05:29:21.481Z,17.28
2019-01-25T05:30:21.435Z,17.32
2019-01-25T05:31:21.934Z,17.32
2019-01-25T05:32:21.965Z,17.34
2019-01-25T05:33:22.075Z,17.37
2019-01-25T05:34:21.440Z,17.37
2019-01-25T05:35:21.602Z,17.37
2019-01-25T05:36:22.674Z,17.41
2019-01-25T05:37:21.911Z,17.4
2019-01-25T05:38:21.835Z,17.44
2019-01-25T05:39:21.681Z,17.47
2019-01-25T05:40:22.553Z,17.47
2019-01-25T05:41:29.056Z,17.48
2019-01-25T05:42:21.942Z,17.5
2019-01-25T05:43:21.859Z,17.51
2019-01-25T05:44:21.394Z,17.54
2019-01-25T05:45:21.813Z,17.55
2019-01-25T05:46:21.946Z,17.54
2019-01-25T05:47:21.384Z,17.56
2019-01-25T05:48:21.490Z,17.56
2019-01-25T05:49:21.739Z,17.6
2019-01-25T05:50:21.952Z,17.59
2019-01-25T05:51:21.880Z,17.6
2019-01-25T05:52:21.623Z,17.64
2019-01-25T05:53:24.858Z,17.65
2019-01-25T05:54:22.001Z,17.66
2019-01-25T05:55:21.684Z,17.67
2019-01-25T05:56:21.942Z,17.67
2019-01-25T05:57:21.509Z,17.7
2019-01-25T05:58:21.655Z,17.72
2019-01-25T05:59:21.738Z,17.7
2019-01-25T06:00:21.742Z,17.73
2019-01-25T06:01:21.863Z,17.73
2019-01-25T06:02:24.862Z,17.77
2019-01-25T06:03:21.542Z,17.76
2019-01-25T06:04:21.680Z,17.77
2019-01-25T06:05:21.514Z,17.77
2019-01-25T06:06:21.491Z,17.8
2019-01-25T06:07:21.663Z,17.8
2019-01-25T06:08:21.412Z,17.81
2019-01-25T06:09:21.824Z,17.83
2019-01-25T06:10:21.958Z,17.83
2019-01-25T06:11:24.580Z,17.84
2019-01-25T06:12:22.561Z,17.87
2019-01-25T06:13:21.626Z,17.88
2019-01-25T06:14:21.403Z,17.87
2019-01-25T06:15:21.856Z,17.9
2019-01-25T06:16:22.197Z,17.91
2019-01-25T06:17:21.470Z,17.91
2019-01-25T06:18:21.879Z,17.95
2019-01-25T06:19:22.102Z,17.94
2019-01-25T06:20:25.463Z,17.93
2019-01-25T06:21:21.876Z,17.96
2019-01-25T06:22:22.026Z,17.97
2019-01-25T06:23:21.470Z,17.97
2019-01-25T06:24:21.373Z,17.98
2019-01-25T06:25:22.103Z,17.99
2019-01-25T06:26:21.698Z,18
2019-01-25T06:27:22.267Z,18.02
2019-01-25T06:28:21.735Z,18.02
2019-01-25T06:29:22.672Z,18.04
2019-01-25T06:30:21.731Z,18.04
2019-01-25T06:31:21.766Z,18.05
2019-01-25T06:32:21.708Z,18.07
2019-01-25T06:33:21.734Z,18.08
2019-01-25T06:34:21.634Z,18.07
2019-01-25T06:35:21.664Z,18.08
2019-01-25T06:36:21.828Z,18.1
2019-01-25T06:37:21.623Z,18.12
2019-01-25T06:38:21.731Z,18.13
2019-01-25T06:39:21.368Z,18.15
2019-01-25T06:40:21.755Z,18.13
2019-01-25T06:41:21.715Z,18.17
2019-01-25T06:42:21.884Z,18.18
2019-01-25T06:43:22.054Z,18.22
2019-01-25T06:44:22.028Z,18.22
2019-01-25T06:45:21.342Z,18.22
2019-01-25T06:46:21.494Z,18.26
2019-01-25T06:47:21.524Z,18.27
2019-01-25T06:48:21.386Z,18.27
2019-01-25T06:49:23.393Z,18.3
2019-01-25T06:50:22.336Z,18.32
2019-01-25T06:51:21.778Z,18.35
2019-01-25T06:52:21.498Z,18.35
2019-01-25T06:53:21.508Z,18.39
2019-01-25T06:54:21.642Z,18.4
2019-01-25T06:55:21.860Z,18.42
2019-01-25T06:56:21.715Z,18.43
2019-01-25T06:57:21.656Z,18.46
2019-01-25T06:58:21.771Z,18.46
2019-01-25T06:59:21.971Z,18.49
2019-01-25T07:00:21.733Z,18.51
2019-01-25T07:01:21.887Z,18.51
2019-01-25T07:02:21.877Z,18.52
2019-01-25T07:03:21.939Z,18.53
2019-01-25T07:04:21.655Z,18.53
2019-01-25T07:05:21.909Z,18.55
2019-01-25T07:06:21.734Z,18.56
2019-01-25T07:07:21.829Z,18.55
2019-01-25T07:08:21.777Z,18.57
2019-01-25T07:09:21.615Z,18.58
2019-01-25T07:10:21.852Z,18.57
2019-01-25T07:11:21.740Z,18.56
2019-01-25T07:12:21.402Z,18.57
2019-01-25T07:13:21.877Z,18.57
2019-01-25T07:14:21.935Z,18.57
2019-01-25T07:15:21.891Z,18.58
2019-01-25T07:16:21.790Z,18.57
2019-01-25T07:17:21.388Z,18.59
2019-01-25T07:18:21.629Z,18.57
2019-01-25T07:19:21.454Z,18.56
2019-01-25T07:20:21.609Z,18.57
2019-01-25T07:21:22.033Z,18.57
2019-01-25T07:22:21.929Z,18.58
2019-01-25T07:23:21.423Z,18.58
2019-01-25T07:24:21.610Z,18.57
2019-01-25T07:25:22.011Z,18.59
2019-01-25T07:26:22.066Z,18.62
2019-01-25T07:27:21.522Z,18.63
2019-01-25T07:28:22.064Z,18.62
2019-01-25T07:29:22.163Z,18.64
2019-01-25T07:30:22.356Z,18.62
2019-01-25T07:31:22.066Z,18.63
2019-01-25T07:32:21.744Z,18.62
2019-01-25T07:33:22.782Z,18.63
2019-01-25T07:34:21.712Z,18.63
2019-01-25T07:35:21.697Z,18.65
2019-01-25T07:36:21.502Z,18.64
2019-01-25T07:37:21.554Z,18.65
2019-01-25T07:38:21.518Z,18.66
2019-01-25T07:39:22.899Z,18.67
2019-01-25T07:40:22.033Z,18.67
2019-01-25T07:41:21.733Z,18.67
2019-01-25T07:42:21.979Z,18.68
2019-01-25T07:43:22.033Z,18.66
2019-01-25T07:44:22.041Z,18.69
2019-01-25T07:45:21.951Z,18.69
2019-01-25T07:46:21.647Z,18.69
2019-01-25T07:47:21.539Z,18.69
2019-01-25T07:48:22.065Z,18.7
2019-01-25T07:49:21.648Z,18.69
2019-01-25T07:50:21.559Z,18.71
2019-01-25T07:51:21.689Z,18.71
2019-01-25T07:52:21.807Z,18.7
2019-01-25T07:53:22.833Z,18.7
2019-01-25T07:54:21.896Z,18.72
2019-01-25T07:55:21.625Z,18.69
2019-01-25T07:56:22.609Z,18.73
2019-01-25T07:57:21.917Z,18.72
2019-01-25T07:58:22.519Z,18.76
2019-01-25T07:59:23.211Z,18.77
2019-01-25T08:00:22.299Z,18.81
2019-01-25T08:01:21.864Z,18.8
2019-01-25T08:02:21.882Z,18.81
2019-01-25T08:03:23.549Z,18.82
2019-01-25T08:04:21.737Z,18.85
2019-01-25T08:05:21.599Z,18.86
2019-01-25T08:06:21.636Z,18.88
2019-01-25T08:07:22.053Z,18.91
2019-01-25T08:08:21.835Z,18.93
2019-01-25T08:09:21.828Z,18.94
2019-01-25T08:10:22.169Z,18.93
2019-01-25T08:11:21.832Z,18.97
2019-01-25T08:12:21.931Z,18.98
2019-01-25T08:13:21.664Z,18.98
2019-01-25T08:14:21.769Z,18.98
2019-01-25T08:15:22.372Z,18.98
2019-01-25T08:16:21.970Z,19.03
2019-01-25T08:17:22.519Z,19.02
2019-01-25T08:18:21.879Z,19.03
2019-01-25T08:19:21.780Z,19.03
2019-01-25T08:20:21.721Z,19.03
2019-01-25T08:21:21.605Z,19.05
2019-01-25T08:22:22.148Z,19.06
2019-01-25T08:23:21.665Z,19.06
2019-01-25T08:24:22.413Z,19.08
2019-01-25T08:25:21.652Z,19.07
2019-01-25T08:26:23.478Z,19.1
2019-01-25T08:27:21.763Z,19.08
2019-01-25T08:28:21.784Z,19.07
2019-01-25T08:29:28.535Z,19.08
2019-01-25T08:30:22.514Z,19.09
2019-01-25T08:31:23.651Z,19.07
2019-01-25T08:32:21.417Z,19.07
2019-01-25T08:33:23.566Z,19.09
2019-01-25T08:34:25.273Z,19.09
2019-01-25T08:35:22.051Z,19.12
2019-01-25T08:36:22.017Z,19.1
2019-01-25T08:37:21.443Z,19.12
2019-01-25T08:38:22.025Z,19.13
2019-01-25T08:39:22.291Z,19.12
2019-01-25T08:40:21.697Z,19.13
2019-01-25T08:41:22.046Z,19.13
2019-01-25T08:42:21.665Z,19.13
2019-01-25T08:43:21.410Z,19.14
2019-01-25T08:44:21.769Z,19.13
2019-01-25T08:45:22.195Z,19.16
2019-01-25T08:46:21.815Z,19.18
2019-01-25T08:47:21.679Z,19.17
2019-01-25T08:48:21.719Z,19.16
2019-01-25T08:49:22.004Z,19.17
2019-01-25T08:50:22.130Z,19.17
2019-01-25T08:51:22.450Z,19.17
2019-01-25T08:52:21.965Z,19.17
2019-01-25T08:53:21.883Z,19.17
2019-01-25T08:54:21.599Z,19.17
2019-01-25T08:55:21.833Z,19.18
2019-01-25T08:56:22.173Z,19.21
2019-01-25T08:57:22.366Z,19.21
2019-01-25T08:58:21.586Z,19.22
2019-01-25T08:59:21.989Z,19.24
2019-01-25T09:00:21.709Z,19.24
2019-01-25T09:01:21.933Z,19.23
2019-01-25T09:02:21.813Z,19.25
2019-01-25T09:03:23.279Z,19.25
2019-01-25T09:04:21.744Z,19.28
2019-01-25T09:05:23.432Z,19.28
2019-01-25T09:06:21.548Z,19.27
2019-01-25T09:07:21.766Z,19.29
2019-01-25T09:08:21.349Z,19.28
2019-01-25T09:09:22.056Z,19.29
2019-01-25T09:10:21.522Z,19.29
2019-01-25T09:11:22.200Z,19.29
2019-01-25T09:12:23.777Z,19.3
2019-01-25T09:13:22.131Z,19.31
2019-01-25T09:14:21.838Z,19.32
2019-01-25T09:15:22.991Z,19.33
2019-01-25T09:16:21.750Z,19.32
2019-01-25T09:17:21.538Z,19.33
2019-01-25T09:18:22.723Z,19.33
2019-01-25T09:19:21.431Z,19.35
2019-01-25T09:20:21.790Z,19.33
2019-01-25T09:21:21.414Z,19.33
2019-01-25T09:22:21.475Z,19.31
2019-01-25T09:23:21.698Z,19.33
2019-01-25T09:24:21.800Z,19.33
2019-01-25T09:25:21.357Z,19.33
2019-01-25T09:26:21.307Z,19.35
2019-01-25T09:27:21.852Z,19.33
2019-01-25T09:28:21.316Z,19.32
2019-01-25T09:29:21.774Z,19.35
2019-01-25T09:30:21.760Z,19.36
2019-01-25T09:31:21.440Z,19.37
2019-01-25T09:32:21.868Z,19.38
2019-01-25T09:33:21.949Z,19.4
2019-01-25T09:34:21.418Z,19.4
2019-01-25T09:35:21.720Z,19.39
2019-01-25T09:36:21.470Z,19.4
2019-01-25T09:37:21.797Z,19.4
2019-01-25T09:38:21.382Z,19.43
2019-01-25T09:39:22.192Z,19.44
2019-01-25T09:40:21.677Z,19.43
2019-01-25T09:41:23.162Z,19.43
2019-01-25T09:42:23.138Z,19.41
2019-01-25T09:43:21.517Z,19.44
2019-01-25T09:44:21.656Z,19.44
2019-01-25T09:45:22.485Z,19.45
2019-01-25T09:46:21.730Z,19.45
2019-01-25T09:47:21.561Z,19.47
2019-01-25T09:48:21.779Z,19.46
2019-01-25T09:49:21.515Z,19.47
2019-01-25T09:50:21.688Z,19.46
2019-01-25T09:51:21.911Z,19.47
2019-01-25T09:52:22.028Z,19.45
2019-01-25T09:53:22.157Z,19.46
2019-01-25T09:54:21.805Z,19.45
2019-01-25T09:55:24.995Z,19.45
2019-01-25T09:56:22.259Z,19.46
2019-01-25T09:57:21.777Z,19.48
2019-01-25T09:58:21.743Z,19.48
2019-01-25T09:59:21.946Z,19.48
2019-01-25T10:00:21.207Z,19.51
2019-01-25T10:01:23.334Z,19.47
2019-01-25T10:02:21.549Z,19.48
2019-01-25T10:03:21.693Z,19.5
2019-01-25T10:04:21.387Z,19.52
2019-01-25T10:05:22.195Z,19.51
2019-01-25T10:06:21.700Z,19.51
2019-01-25T10:07:21.805Z,19.54
2019-01-25T10:08:21.548Z,19.56
2019-01-25T10:09:21.395Z,19.54
2019-01-25T10:10:21.825Z,19.56
2019-01-25T10:11:21.464Z,19.56
2019-01-25T10:12:21.839Z,19.58
2019-01-25T10:13:21.429Z,19.56
2019-01-25T10:14:21.272Z,19.57
2019-01-25T10:15:24.225Z,19.58
2019-01-25T10:16:21.711Z,19.58
2019-01-25T10:17:21.759Z,19.59
2019-01-25T10:18:25.347Z,19.58
2019-01-25T10:19:21.566Z,19.6
2019-01-25T10:20:21.889Z,19.6
2019-01-25T10:21:21.833Z,19.61
2019-01-25T10:22:23.270Z,19.62
2019-01-25T10:23:21.331Z,19.6
2019-01-25T10:24:21.298Z,19.61
2019-01-25T10:25:21.352Z,19.62
2019-01-25T10:26:23.541Z,19.61
2019-01-25T10:27:21.943Z,19.63
2019-01-25T10:28:21.690Z,19.62
2019-01-25T10:29:21.540Z,19.63
2019-01-25T10:30:21.730Z,19.62
2019-01-25T10:31:21.390Z,19.66
2019-01-25T10:32:21.940Z,19.65
2019-01-25T10:33:21.731Z,19.66
2019-01-25T10:34:21.756Z,19.67
2019-01-25T10:35:21.722Z,19.67
2019-01-25T10:36:21.419Z,19.68
2019-01-25T10:37:21.814Z,19.7
2019-01-25T10:38:21.550Z,19.7
2019-01-25T10:39:22.234Z,19.71
2019-01-25T10:40:22.037Z,19.66
2019-01-25T10:41:21.854Z,19.69
2019-01-25T10:42:21.628Z,19.71
2019-01-25T10:43:21.660Z,19.68
2019-01-25T10:44:22.717Z,19.71
2019-01-25T10:45:23.384Z,19.7
2019-01-25T10:46:21.512Z,19.69
2019-01-25T10:47:21.543Z,19.71
2019-01-25T10:48:21.808Z,19.71
2019-01-25T10:49:21.411Z,19.72
2019-01-25T10:50:21.490Z,19.72
2019-01-25T10:51:21.759Z,19.74
2019-01-25T10:52:21.426Z,19.73
2019-01-25T10:53:21.416Z,19.72
2019-01-25T10:54:21.846Z,19.71
2019-01-25T10:55:21.850Z,19.74
2019-01-25T10:56:22.167Z,19.74
2019-01-25T10:57:21.448Z,19.74
2019-01-25T10:58:21.595Z,19.73
2019-01-25T10:59:21.785Z,19.73
2019-01-25T11:00:21.437Z,19.75
2019-01-25T11:01:21.798Z,19.74
2019-01-25T11:02:21.283Z,19.74
2019-01-25T11:03:21.910Z,19.74
2019-01-25T11:04:21.797Z,19.75
2019-01-25T11:05:21.453Z,19.73
2019-01-25T11:06:21.799Z,19.75
2019-01-25T11:07:21.940Z,19.73
2019-01-25T11:08:21.509Z,19.73
2019-01-25T11:09:21.700Z,19.73
2019-01-25T11:10:21.864Z,19.71
2019-01-25T11:11:21.426Z,19.72
2019-01-25T11:12:21.508Z,19.69
2019-01-25T11:13:21.693Z,19.71
2019-01-25T11:14:21.317Z,19.73
2019-01-25T11:15:22.458Z,19.71
2019-01-25T11:16:21.562Z,19.7
2019-01-25T11:17:21.404Z,19.69
2019-01-25T11:18:21.403Z,19.67
2019-01-25T11:19:21.565Z,19.68
2019-01-25T11:20:22.043Z,19.67
2019-01-25T11:21:21.934Z,19.67
2019-01-25T11:22:21.535Z,19.65
2019-01-25T11:23:21.365Z,19.66
2019-01-25T11:24:21.385Z,19.67
2019-01-25T11:25:21.533Z,19.67
2019-01-25T11:26:23.541Z,19.67
2019-01-25T11:27:22.046Z,19.65
2019-01-25T11:28:23.295Z,19.67
2019-01-25T11:29:21.208Z,19.66
2019-01-25T11:30:21.712Z,19.67
2019-01-25T11:31:21.720Z,19.66
2019-01-25T11:32:21.919Z,19.65
2019-01-25T11:33:21.721Z,19.65
2019-01-25T11:34:21.450Z,19.67
2019-01-25T11:35:21.932Z,19.67
2019-01-25T11:36:23.430Z,19.66
2019-01-25T11:37:21.814Z,19.68
2019-01-25T11:38:21.622Z,19.67
2019-01-25T11:39:21.917Z,19.68
2019-01-25T11:40:21.966Z,19.69
2019-01-25T11:41:21.443Z,19.69
2019-01-25T11:42:21.582Z,19.71
2019-01-25T11:43:21.779Z,19.7
2019-01-25T11:44:22.127Z,19.71
2019-01-25T11:45:21.460Z,19.71
2019-01-25T11:46:21.980Z,19.71
2019-01-25T11:47:21.339Z,19.74
2019-01-25T11:48:21.737Z,19.73
2019-01-25T11:49:21.278Z,19.74
2019-01-25T11:50:21.736Z,19.73
2019-01-25T11:51:21.956Z,19.74
2019-01-25T11:52:25.420Z,19.75
2019-01-25T11:53:21.298Z,19.76
2019-01-25T11:54:21.402Z,19.76
2019-01-25T11:55:21.888Z,19.79
2019-01-25T11:56:22.842Z,19.79
2019-01-25T11:57:21.355Z,19.81
2019-01-25T11:58:21.611Z,19.82
2019-01-25T11:59:21.780Z,19.83
2019-01-25T12:00:21.711Z,19.83
2019-01-25T12:01:21.923Z,19.86
2019-01-25T12:02:21.552Z,19.86
2019-01-25T12:03:22.049Z,19.85
2019-01-25T12:04:21.739Z,19.88
2019-01-25T12:05:21.781Z,19.89
2019-01-25T12:06:21.404Z,19.86
2019-01-25T12:07:22.323Z,19.87
2019-01-25T12:08:21.377Z,19.88
2019-01-25T12:09:21.517Z,19.86
2019-01-25T12:10:21.874Z,19.87
2019-01-25T12:11:22.076Z,19.85
2019-01-25T12:12:21.713Z,19.85
2019-01-25T12:13:21.625Z,19.86
2019-01-25T12:14:21.379Z,19.85
2019-01-25T12:15:21.237Z,19.87
2019-01-25T12:16:21.807Z,19.86
2019-01-25T12:17:21.336Z,19.87
2019-01-25T12:18:21.784Z,19.85
2019-01-25T12:19:22.061Z,19.86
2019-01-25T12:20:23.151Z,19.84
2019-01-25T12:21:21.501Z,19.85
2019-01-25T12:22:22.604Z,19.86
2019-01-25T12:23:21.757Z,19.83
2019-01-25T12:24:21.365Z,19.81
2019-01-25T12:25:21.796Z,19.82
2019-01-25T12:26:21.867Z,19.83
2019-01-25T12:27:21.683Z,19.84
2019-01-25T12:28:21.287Z,19.82
2019-01-25T12:29:22.156Z,19.82
2019-01-25T12:30:21.396Z,19.81
2019-01-25T12:31:21.434Z,19.84
2019-01-25T12:32:21.936Z,19.84
2019-01-25T12:33:21.749Z,19.85
2019-01-25T12:34:21.380Z,19.85
2019-01-25T12:35:21.951Z,19.85
2019-01-25T12:36:23.230Z,19.83
2019-01-25T12:37:21.795Z,19.82
2019-01-25T12:38:23.018Z,19.83
2019-01-25T12:39:23.242Z,19.83
2019-01-25T12:40:21.471Z,19.83
2019-01-25T12:41:22.068Z,19.84
2019-01-25T12:42:21.373Z,19.84
2019-01-25T12:43:24.551Z,19.83
2019-01-25T12:44:21.493Z,19.83
2019-01-25T12:45:21.523Z,19.85
2019-01-25T12:46:21.351Z,19.83
2019-01-25T12:47:21.457Z,19.83
2019-01-25T12:48:21.851Z,19.84
2019-01-25T12:49:21.308Z,19.85
2019-01-25T12:50:21.897Z,19.84
2019-01-25T12:51:21.755Z,19.82
2019-01-25T12:52:21.480Z,19.83
2019-01-25T12:53:21.997Z,19.82
2019-01-25T12:54:21.422Z,19.82
2019-01-25T12:55:21.770Z,19.83